createdAt,value
2018-09-29T00:00:07.924Z,11.85
2018-09-29T00:02:36.860Z,11.88
2018-09-29T00:05:05.798Z,11.89
2018-09-29T00:07:34.755Z,11.84
2018-09-29T00:10:03.842Z,11.76
2018-09-29T00:12:32.767Z,11.71
2018-09-29T00:15:01.705Z,11.64
2018-09-29T00:17:30.690Z,11.56
2018-09-29T00:19:59.651Z,11.46
2018-09-29T00:22:28.653Z,11.37
2018-09-29T00:24:57.630Z,11.23
2018-09-29T00:27:26.564Z,11.17
2018-09-29T00:29:55.531Z,11.11
2018-09-29T00:32:24.463Z,11.02
2018-09-29T00:34:53.438Z,11.00
2018-09-29T00:37:22.365Z,10.93
2018-09-29T00:39:51.320Z,10.83
2018-09-29T00:42:20.270Z,10.74
2018-09-29T00:44:49.283Z,10.64
2018-09-29T00:47:18.234Z,10.60
2018-09-29T00:49:47.163Z,10.53
2018-09-29T00:52:16.110Z,10.47
2018-09-29T00:54:45.090Z,10.41
2018-09-29T00:57:14.066Z,10.40
2018-09-29T00:59:43.026Z,10.39
2018-09-29T01:02:12.107Z,10.39
2018-09-29T01:04:41.070Z,10.40
2018-09-29T01:07:10.074Z,10.42
2018-09-29T01:09:39.021Z,10.35
2018-09-29T01:12:07.992Z,10.35
2018-09-29T01:14:36.967Z,10.34
2018-09-29T01:17:05.902Z,10.33
2018-09-29T01:19:34.862Z,10.30
2018-09-29T01:22:03.801Z,10.29
2018-09-29T01:24:32.753Z,10.32
2018-09-29T01:27:01.683Z,10.36
2018-09-29T01:29:30.667Z,10.46
2018-09-29T01:31:59.593Z,10.51
2018-09-29T01:34:29.406Z,10.61
2018-09-29T01:36:58.517Z,10.65
2018-09-29T01:39:27.471Z,10.63
2018-09-29T01:41:56.453Z,10.59
2018-09-29T01:44:25.392Z,10.54
2018-09-29T01:46:54.349Z,10.49
2018-09-29T01:49:23.284Z,10.43
2018-09-29T01:51:52.326Z,10.38
2018-09-29T01:54:21.267Z,10.29
2018-09-29T01:56:50.235Z,10.29
2018-09-29T01:59:19.214Z,10.26
2018-09-29T02:01:48.159Z,10.17
2018-09-29T02:04:17.131Z,10.07
2018-09-29T02:06:46.121Z,10.02
2018-09-29T02:09:15.066Z,9.91
2018-09-29T02:11:44.072Z,9.85
2018-09-29T02:14:13.950Z,9.81
2018-09-29T02:16:42.869Z,9.75
2018-09-29T02:19:11.798Z,9.75
2018-09-29T02:21:40.753Z,9.75
2018-09-29T02:24:09.682Z,9.69
2018-09-29T02:26:38.618Z,9.60
2018-09-29T02:29:07.538Z,9.54
2018-09-29T02:31:36.483Z,9.50
2018-09-29T02:34:05.406Z,9.45
2018-09-29T02:36:34.415Z,9.42
2018-09-29T02:39:03.563Z,9.43
2018-09-29T02:41:32.502Z,9.42
2018-09-29T02:44:01.494Z,9.43
2018-09-29T02:46:30.415Z,9.45
2018-09-29T02:48:59.397Z,9.46
2018-09-29T02:51:28.360Z,9.43
2018-09-29T02:53:57.295Z,9.41
2018-09-29T02:56:26.235Z,9.42
2018-09-29T02:58:55.322Z,9.43
2018-09-29T03:01:24.270Z,9.43
2018-09-29T03:03:53.215Z,9.41
2018-09-29T03:06:22.158Z,9.36
2018-09-29T03:08:51.100Z,9.39
2018-09-29T03:11:20.047Z,9.44
2018-09-29T03:13:49.034Z,9.47
2018-09-29T03:16:18.044Z,9.48
2018-09-29T03:18:46.954Z,9.49
2018-09-29T03:21:15.962Z,9.48
2018-09-29T03:23:44.890Z,9.49
2018-09-29T03:26:13.847Z,9.47
2018-09-29T03:28:42.826Z,9.44
2018-09-29T03:31:11.785Z,9.40
2018-09-29T03:33:40.767Z,9.43
2018-09-29T03:36:09.774Z,9.44
2018-09-29T03:38:38.727Z,9.41
2018-09-29T03:41:07.683Z,9.44
2018-09-29T03:43:36.701Z,9.39
2018-09-29T03:46:05.684Z,9.36
2018-09-29T03:48:34.624Z,9.33
2018-09-29T03:51:03.588Z,9.35
2018-09-29T03:53:32.570Z,9.33
2018-09-29T03:56:01.513Z,9.31
2018-09-29T03:58:30.444Z,9.26
2018-09-29T04:00:59.424Z,9.24
2018-09-29T04:03:28.439Z,9.21
2018-09-29T04:05:57.453Z,9.18
2018-09-29T04:08:26.385Z,9.18
2018-09-29T04:10:55.387Z,9.15
2018-09-29T04:13:24.342Z,9.09
2018-09-29T04:15:53.282Z,9.05
2018-09-29T04:18:22.250Z,9.02
2018-09-29T04:20:51.230Z,9.02
2018-09-29T04:23:20.249Z,9.04
2018-09-29T04:25:49.220Z,9.06
2018-09-29T04:28:18.236Z,8.99
2018-09-29T04:30:47.177Z,8.88
2018-09-29T04:33:16.123Z,8.88
2018-09-29T04:35:45.115Z,8.88
2018-09-29T04:38:14.067Z,8.90
2018-09-29T04:40:43.039Z,8.94
2018-09-29T04:43:12.066Z,8.94
2018-09-29T04:45:41.070Z,9.01
2018-09-29T04:48:10.071Z,9.05
2018-09-29T04:50:39.078Z,9.08
2018-09-29T04:53:08.034Z,9.16
2018-09-29T04:55:37.037Z,9.33
2018-09-29T04:58:06.008Z,9.53
2018-09-29T05:00:34.953Z,9.68
2018-09-29T05:03:03.929Z,9.84
2018-09-29T05:05:32.892Z,9.95
2018-09-29T05:08:01.849Z,10.05
2018-09-29T05:10:30.795Z,10.17
2018-09-29T05:12:59.774Z,10.35
2018-09-29T05:15:28.730Z,10.58
2018-09-29T05:17:58.262Z,10.73
2018-09-29T05:20:27.271Z,10.88
2018-09-29T05:22:56.239Z,10.92
2018-09-29T05:25:25.244Z,11.07
2018-09-29T05:27:54.211Z,11.26
2018-09-29T05:30:23.182Z,11.63
2018-09-29T05:32:52.110Z,11.97
2018-09-29T05:35:21.063Z,12.37
2018-09-29T05:37:50.020Z,12.81
2018-09-29T05:40:18.982Z,13.16
2018-09-29T05:42:47.913Z,13.24
2018-09-29T05:45:16.978Z,13.46
2018-09-29T05:47:45.954Z,13.48
2018-09-29T05:50:14.891Z,13.63
2018-09-29T05:52:43.865Z,13.79
2018-09-29T05:55:12.825Z,13.91
2018-09-29T05:57:41.803Z,14.00
2018-09-29T06:00:10.810Z,14.06
2018-09-29T06:02:39.730Z,14.14
2018-09-29T06:05:08.692Z,14.33
2018-09-29T06:07:37.736Z,14.48
2018-09-29T06:10:06.730Z,14.45
2018-09-29T06:12:35.703Z,14.80
2018-09-29T06:15:04.666Z,15.12
2018-09-29T06:17:33.624Z,15.16
2018-09-29T06:20:02.615Z,15.24
2018-09-29T06:22:31.573Z,15.29
2018-09-29T06:25:00.546Z,15.38
2018-09-29T06:27:29.554Z,15.36
2018-09-29T06:29:58.638Z,15.25
2018-09-29T06:32:27.595Z,15.26
2018-09-29T06:34:56.559Z,15.16
2018-09-29T06:37:25.520Z,15.10
2018-09-29T06:39:54.471Z,15.11
2018-09-29T06:42:23.451Z,15.09
2018-09-29T06:44:52.826Z,15.19
2018-09-29T06:47:21.822Z,15.42
2018-09-29T06:49:50.783Z,15.54
2018-09-29T06:52:19.935Z,15.86
2018-09-29T06:54:48.914Z,16.01
2018-09-29T06:57:17.889Z,16.08
2018-09-29T06:59:46.878Z,16.20
2018-09-29T07:02:15.845Z,16.62
2018-09-29T07:04:44.823Z,16.90
2018-09-29T07:07:13.753Z,16.96
2018-09-29T07:09:42.825Z,17.03
2018-09-29T07:12:13.975Z,17.03
2018-09-29T07:14:42.973Z,17.11
2018-09-29T07:17:11.945Z,17.41
2018-09-29T07:19:40.966Z,17.64
2018-09-29T07:22:10.039Z,17.82
2018-09-29T07:24:39.045Z,17.83
2018-09-29T07:27:07.987Z,17.97
2018-09-29T07:29:36.934Z,18.24
2018-09-29T07:32:06.025Z,18.38
2018-09-29T07:34:34.988Z,18.64
2018-09-29T07:37:03.999Z,18.80
2018-09-29T07:39:32.944Z,18.89
2018-09-29T07:42:01.987Z,19.22
2018-09-29T07:44:31.006Z,19.51
2018-09-29T07:47:00.016Z,19.66
2018-09-29T07:49:29.058Z,19.81
2018-09-29T07:51:58.028Z,20.06
2018-09-29T07:54:27.074Z,20.29
2018-09-29T07:56:56.049Z,20.70
2018-09-29T07:59:25.340Z,20.51
2018-09-29T08:01:54.322Z,20.53
2018-09-29T08:04:23.388Z,20.57
2018-09-29T08:06:52.377Z,21.00
2018-09-29T08:09:21.324Z,21.12
2018-09-29T08:11:50.313Z,20.98
2018-09-29T08:14:19.274Z,21.05
2018-09-29T08:16:48.298Z,20.85
2018-09-29T08:19:17.239Z,21.03
2018-09-29T08:21:46.173Z,20.93
2018-09-29T08:24:15.165Z,21.11
2018-09-29T08:26:44.254Z,21.01
2018-09-29T08:29:13.208Z,20.98
2018-09-29T08:31:42.166Z,20.94
2018-09-29T08:34:11.457Z,20.87
2018-09-29T08:36:40.420Z,21.03
2018-09-29T08:39:10.131Z,21.43
2018-09-29T08:41:39.174Z,21.84
2018-09-29T08:44:08.118Z,21.98
2018-09-29T08:46:37.173Z,21.96
2018-09-29T08:49:06.094Z,22.10
2018-09-29T08:51:35.071Z,22.24
2018-09-29T08:54:04.023Z,22.14
2018-09-29T08:56:33.048Z,22.15
2018-09-29T08:59:02.095Z,22.54
2018-09-29T09:01:31.152Z,22.37
2018-09-29T09:04:00.103Z,22.35
2018-09-29T09:06:29.078Z,22.32
2018-09-29T09:08:58.122Z,22.25
2018-09-29T09:11:27.137Z,22.47
2018-09-29T09:13:56.128Z,22.61
2018-09-29T09:16:25.079Z,22.72
2018-09-29T09:18:54.069Z,22.60
2018-09-29T09:21:23.056Z,22.78
2018-09-29T09:23:52.155Z,22.47
2018-09-29T09:26:21.096Z,22.53
2018-09-29T09:28:50.058Z,22.86
2018-09-29T09:31:19.078Z,22.94
2018-09-29T09:33:48.105Z,22.94
2018-09-29T09:36:17.052Z,23.19
2018-09-29T09:38:46.053Z,23.34
2018-09-29T09:41:15.018Z,23.26
2018-09-29T09:43:44.007Z,23.39
2018-09-29T09:46:13.248Z,23.25
2018-09-29T09:48:42.214Z,23.33
2018-09-29T09:51:11.175Z,23.46
2018-09-29T09:53:40.167Z,23.39
2018-09-29T09:56:09.232Z,23.51
2018-09-29T09:58:38.723Z,23.51
2018-09-29T10:01:13.051Z,23.62
2018-09-29T10:03:42.009Z,23.64
2018-09-29T10:06:11.011Z,23.45
2018-09-29T10:08:39.994Z,23.67
2018-09-29T10:11:09.039Z,23.84
2018-09-29T10:13:38.159Z,23.97
2018-09-29T10:16:07.307Z,24.07
2018-09-29T10:18:36.281Z,24.19
2018-09-29T10:21:05.251Z,24.07
2018-09-29T10:23:34.235Z,24.17
2018-09-29T10:26:03.187Z,24.26
2018-09-29T10:28:32.203Z,24.27
2018-09-29T10:31:01.175Z,24.41
2018-09-29T10:33:30.129Z,24.55
2018-09-29T10:35:59.120Z,24.64
2018-09-29T10:38:28.178Z,24.44
2018-09-29T10:40:57.174Z,24.53
2018-09-29T10:43:26.135Z,24.70
2018-09-29T10:45:55.112Z,24.56
2018-09-29T10:48:24.074Z,24.52
2018-09-29T10:50:53.019Z,24.34
2018-09-29T10:53:22.026Z,24.46
2018-09-29T10:55:50.972Z,24.22
2018-09-29T10:58:20.046Z,24.23
2018-09-29T11:00:49.012Z,24.20
2018-09-29T11:03:17.963Z,24.16
2018-09-29T11:05:46.938Z,24.25
2018-09-29T11:08:15.903Z,24.05
2018-09-29T11:10:44.972Z,24.18
2018-09-29T11:13:13.914Z,24.09
2018-09-29T11:15:42.858Z,24.24
2018-09-29T11:18:11.815Z,24.53
2018-09-29T11:20:40.795Z,24.76
2018-09-29T11:23:09.753Z,24.98
2018-09-29T11:25:38.729Z,25.28
2018-09-29T11:28:07.780Z,25.29
2018-09-29T11:30:36.684Z,25.85
2018-09-29T11:33:05.724Z,26.54
2018-09-29T11:35:34.670Z,27.45
2018-09-29T11:38:03.624Z,27.83
2018-09-29T11:40:32.715Z,28.43
2018-09-29T11:43:01.667Z,29.02
2018-09-29T11:45:30.679Z,29.97
2018-09-29T11:47:59.679Z,31.12
2018-09-29T11:50:28.751Z,32.01
2018-09-29T11:52:57.821Z,32.35
2018-09-29T11:55:26.867Z,33.64
2018-09-29T11:57:55.911Z,33.80
2018-09-29T12:00:24.885Z,34.12
2018-09-29T12:02:54.123Z,34.25
2018-09-29T12:05:23.127Z,34.60
2018-09-29T12:07:52.163Z,34.64
2018-09-29T12:10:21.126Z,34.62
2018-09-29T12:12:50.139Z,34.30
2018-09-29T12:15:19.122Z,34.32
2018-09-29T12:17:48.126Z,33.63
2018-09-29T12:20:17.143Z,32.19
2018-09-29T12:22:46.150Z,30.19
2018-09-29T12:25:15.115Z,28.86
2018-09-29T12:27:44.062Z,27.71
2018-09-29T12:30:13.059Z,26.87
2018-09-29T12:32:42.048Z,26.27
2018-09-29T12:35:11.100Z,25.79
2018-09-29T12:37:40.091Z,25.28
2018-09-29T12:40:09.064Z,24.99
2018-09-29T12:42:38.140Z,24.65
2018-09-29T12:45:07.334Z,24.31
2018-09-29T12:47:36.399Z,24.00
2018-09-29T12:50:05.386Z,23.78
2018-09-29T12:52:34.358Z,23.48
2018-09-29T12:55:03.337Z,23.37
2018-09-29T12:57:32.366Z,23.30
2018-09-29T13:00:01.353Z,23.20
2018-09-29T13:02:30.371Z,23.15
2018-09-29T13:04:59.445Z,22.93
2018-09-29T13:07:28.472Z,22.88
2018-09-29T13:09:57.499Z,22.81
2018-09-29T13:12:26.482Z,22.61
2018-09-29T13:14:55.520Z,22.45
2018-09-29T13:17:24.504Z,22.41
2018-09-29T13:19:53.614Z,22.25
2018-09-29T13:22:22.571Z,22.17
2018-09-29T13:24:51.538Z,22.05
2018-09-29T13:27:20.530Z,22.04
2018-09-29T13:29:49.475Z,22.07
2018-09-29T13:32:18.522Z,22.08
2018-09-29T13:34:47.493Z,22.11
2018-09-29T13:37:16.515Z,22.14
2018-09-29T13:39:45.487Z,22.21
2018-09-29T13:42:14.481Z,22.29
2018-09-29T13:44:43.511Z,22.37
2018-09-29T13:47:12.481Z,22.41
2018-09-29T13:49:41.452Z,22.49
2018-09-29T13:52:10.488Z,22.54
2018-09-29T13:54:39.474Z,22.55
2018-09-29T13:57:08.457Z,22.59
2018-09-29T13:59:37.461Z,22.59
2018-09-29T14:02:06.479Z,22.70
2018-09-29T14:04:35.522Z,22.76
2018-09-29T14:07:04.531Z,22.77
2018-09-29T14:09:33.477Z,22.71
2018-09-29T14:12:02.478Z,22.72
2018-09-29T14:14:31.467Z,22.68
2018-09-29T14:17:00.451Z,22.61
2018-09-29T14:19:29.436Z,22.47
2018-09-29T14:21:58.446Z,22.35
2018-09-29T14:24:27.409Z,22.30
2018-09-29T14:26:56.527Z,22.21
2018-09-29T14:29:25.475Z,22.19
2018-09-29T14:31:54.433Z,22.06
2018-09-29T14:34:23.448Z,22.07
2018-09-29T14:36:52.571Z,22.01
2018-09-29T14:39:21.543Z,21.99
2018-09-29T14:41:50.522Z,21.95
2018-09-29T14:44:19.494Z,21.93
2018-09-29T14:46:48.463Z,21.89
2018-09-29T14:49:17.487Z,21.84
2018-09-29T14:51:46.458Z,21.77
2018-09-29T14:54:15.444Z,21.72
2018-09-29T14:56:44.458Z,21.67
2018-09-29T14:59:18.394Z,21.56
2018-09-29T15:01:47.447Z,21.47
2018-09-29T15:04:16.500Z,21.42
2018-09-29T15:06:45.492Z,21.35
2018-09-29T15:09:14.507Z,21.29
2018-09-29T15:11:43.477Z,21.27
2018-09-29T15:14:12.516Z,21.22
2018-09-29T15:16:41.668Z,21.17
2018-09-29T15:19:10.671Z,21.13
2018-09-29T15:21:39.662Z,21.08
2018-09-29T15:24:08.673Z,21.04
2018-09-29T15:26:41.200Z,21.00
2018-09-29T15:29:10.287Z,20.94
2018-09-29T15:31:39.317Z,20.84
2018-09-29T15:34:08.319Z,20.75
2018-09-29T15:36:37.326Z,20.70
2018-09-29T15:39:09.597Z,20.63
2018-09-29T15:41:38.590Z,20.52
2018-09-29T15:44:07.708Z,20.40
2018-09-29T15:46:36.744Z,20.27
2018-09-29T15:49:05.882Z,20.13
2018-09-29T15:51:34.982Z,19.94
2018-09-29T15:54:03.979Z,19.71
2018-09-29T15:56:32.957Z,19.51
2018-09-29T15:59:01.899Z,19.33
2018-09-29T16:01:30.931Z,19.18
2018-09-29T16:03:59.876Z,19.05
2018-09-29T16:06:28.884Z,18.92
2018-09-29T16:08:57.871Z,18.77
2018-09-29T16:11:26.833Z,18.62
2018-09-29T16:13:55.784Z,18.50
2018-09-29T16:16:24.756Z,18.37
2018-09-29T16:18:53.707Z,18.21
2018-09-29T16:21:22.669Z,18.07
2018-09-29T16:23:51.926Z,17.92
2018-09-29T16:26:20.908Z,17.74
2018-09-29T16:28:49.874Z,17.58
2018-09-29T16:31:18.962Z,17.39
2018-09-29T16:33:47.887Z,17.19
2018-09-29T16:36:16.886Z,17.07
2018-09-29T16:38:45.845Z,16.96
2018-09-29T16:41:14.783Z,16.85
2018-09-29T16:43:43.785Z,16.79
2018-09-29T16:46:12.693Z,16.67
2018-09-29T16:48:41.638Z,16.48
2018-09-29T16:51:10.635Z,16.34
2018-09-29T16:53:39.655Z,16.18
2018-09-29T16:56:08.815Z,15.98
2018-09-29T16:58:37.852Z,15.81
2018-09-29T17:01:07.163Z,15.73
2018-09-29T17:03:36.170Z,15.60
2018-09-29T17:06:05.110Z,15.54
2018-09-29T17:08:34.088Z,15.46
2018-09-29T17:11:03.033Z,15.40
2018-09-29T17:13:31.991Z,15.33
2018-09-29T17:16:01.073Z,15.25
2018-09-29T17:18:29.919Z,15.18
2018-09-29T17:20:58.847Z,15.12
2018-09-29T17:23:27.835Z,15.08
2018-09-29T17:25:56.795Z,15.06
2018-09-29T17:28:25.726Z,15.26
2018-09-29T17:30:54.744Z,15.61
2018-09-29T17:33:23.679Z,15.86
2018-09-29T17:35:52.624Z,16.19
2018-09-29T17:38:21.562Z,16.38
2018-09-29T17:40:50.570Z,16.46
2018-09-29T17:43:19.511Z,16.48
2018-09-29T17:45:48.465Z,16.44
2018-09-29T17:48:17.441Z,16.48
2018-09-29T17:50:46.402Z,16.44
2018-09-29T17:53:15.481Z,16.53
2018-09-29T17:55:44.630Z,16.55
2018-09-29T17:58:13.599Z,16.50
2018-09-29T18:00:42.614Z,16.42
2018-09-29T18:03:11.616Z,16.40
2018-09-29T18:05:40.686Z,16.42
2018-09-29T18:08:09.699Z,16.38
2018-09-29T18:10:38.710Z,16.35
2018-09-29T18:13:07.671Z,16.26
2018-09-29T18:15:36.674Z,16.22
2018-09-29T18:18:05.666Z,16.18
2018-09-29T18:20:34.664Z,16.10
2018-09-29T18:23:03.743Z,15.98
2018-09-29T18:25:32.719Z,15.91
2018-09-29T18:28:01.746Z,15.72
2018-09-29T18:30:30.726Z,15.66
2018-09-29T18:32:59.686Z,15.60
2018-09-29T18:35:28.670Z,15.48
2018-09-29T18:38:12.400Z,15.46
2018-09-29T18:40:41.428Z,15.34
2018-09-29T18:43:10.370Z,15.22
2018-09-29T18:45:39.381Z,15.15
2018-09-29T18:48:08.367Z,14.93
2018-09-29T18:50:37.307Z,14.83
2018-09-29T18:53:06.275Z,14.74
2018-09-29T18:55:35.224Z,14.67
2018-09-29T18:58:04.234Z,14.51
2018-09-29T19:00:33.169Z,14.41
2018-09-29T19:03:02.115Z,14.30
2018-09-29T19:05:31.086Z,14.25
2018-09-29T19:08:00.096Z,14.14
2018-09-29T19:10:29.062Z,14.21
2018-09-29T19:12:58.045Z,14.15
2018-09-29T19:15:27.015Z,14.03
2018-09-29T19:17:55.947Z,14.00
2018-09-29T19:20:24.888Z,13.93
2018-09-29T19:22:53.827Z,13.82
2018-09-29T19:25:22.786Z,13.77
2018-09-29T19:27:51.724Z,13.68
2018-09-29T19:30:20.749Z,13.68
2018-09-29T19:32:49.694Z,13.62
2018-09-29T19:35:18.641Z,13.58
2018-09-29T19:37:47.620Z,13.60
2018-09-29T19:40:16.576Z,13.55
2018-09-29T19:42:45.570Z,13.56
2018-09-29T19:45:14.533Z,13.51
2018-09-29T19:47:43.507Z,13.51
2018-09-29T19:50:12.454Z,13.43
2018-09-29T19:52:41.530Z,13.41
2018-09-29T19:55:10.622Z,13.40
2018-09-29T19:57:39.607Z,13.35
2018-09-29T20:00:08.639Z,13.33
2018-09-29T20:02:37.577Z,13.26
2018-09-29T20:05:06.694Z,13.26
2018-09-29T20:07:35.724Z,13.20
2018-09-29T20:10:04.800Z,13.14
2018-09-29T20:12:33.759Z,13.04
2018-09-29T20:15:02.933Z,12.98
2018-09-29T20:17:31.858Z,12.92
2018-09-29T20:20:00.794Z,12.86
2018-09-29T20:22:29.735Z,12.83
2018-09-29T20:24:58.688Z,12.75
2018-09-29T20:27:27.693Z,12.72
2018-09-29T20:29:56.663Z,12.68
2018-09-29T20:32:25.631Z,12.62
2018-09-29T20:34:54.637Z,12.49
2018-09-29T20:37:23.750Z,12.45
2018-09-29T20:39:52.680Z,12.45
2018-09-29T20:42:21.613Z,12.48
2018-09-29T20:44:50.577Z,12.46
2018-09-29T20:47:19.572Z,12.43
2018-09-29T20:49:48.533Z,12.41
2018-09-29T20:52:17.514Z,12.41
2018-09-29T20:54:46.503Z,12.44
2018-09-29T20:57:15.486Z,12.42
2018-09-29T20:59:44.524Z,12.31
2018-09-29T21:02:13.484Z,12.37
2018-09-29T21:04:42.431Z,12.48
2018-09-29T21:07:11.697Z,12.55
2018-09-29T21:09:40.688Z,12.63
2018-09-29T21:12:09.696Z,12.72
2018-09-29T21:14:38.640Z,12.76
2018-09-29T21:17:07.638Z,12.80
2018-09-29T21:19:36.656Z,12.84
2018-09-29T21:22:05.680Z,12.79
2018-09-29T21:24:34.636Z,12.89
2018-09-29T21:27:03.599Z,12.86
2018-09-29T21:29:32.586Z,12.81
2018-09-29T21:32:01.543Z,12.80
2018-09-29T21:34:30.499Z,12.81
2018-09-29T21:36:59.475Z,12.88
2018-09-29T21:39:28.452Z,12.89
2018-09-29T21:41:57.395Z,12.89
2018-09-29T21:44:26.389Z,12.84
2018-09-29T21:46:55.343Z,12.90
2018-09-29T21:49:24.318Z,12.84
2018-09-29T21:51:53.267Z,12.88
2018-09-29T21:54:22.206Z,12.89
2018-09-29T21:56:51.198Z,12.93
2018-09-29T21:59:20.135Z,12.94
2018-09-29T22:01:49.104Z,12.92
2018-09-29T22:04:18.044Z,12.93
2018-09-29T22:06:47.939Z,12.89
2018-09-29T22:09:22.445Z,12.90
2018-09-29T22:11:52.026Z,12.81
2018-09-29T22:14:20.973Z,12.78
2018-09-29T22:16:49.930Z,12.83
2018-09-29T22:19:18.917Z,12.80
2018-09-29T22:21:47.867Z,12.80
2018-09-29T22:24:16.862Z,12.78
2018-09-29T22:26:45.802Z,12.80
2018-09-29T22:29:14.749Z,12.81
2018-09-29T22:31:43.785Z,12.81
2018-09-29T22:34:12.786Z,12.85
2018-09-29T22:36:41.719Z,12.87
2018-09-29T22:39:11.934Z,12.82
2018-09-29T22:41:40.901Z,12.88
2018-09-29T22:44:09.854Z,12.89
2018-09-29T22:46:38.799Z,12.89
2018-09-29T22:49:07.772Z,12.86
2018-09-29T22:51:36.750Z,12.88
2018-09-29T22:54:05.743Z,12.92
2018-09-29T22:56:34.785Z,12.88
2018-09-29T22:59:03.714Z,12.85
2018-09-29T23:01:32.674Z,12.86
2018-09-29T23:04:01.618Z,12.87
2018-09-29T23:06:30.548Z,12.90
2018-09-29T23:08:59.508Z,12.94
2018-09-29T23:11:28.470Z,12.90
2018-09-29T23:13:57.455Z,12.90
2018-09-29T23:16:26.414Z,12.91
2018-09-29T23:18:55.499Z,12.87
2018-09-29T23:21:24.450Z,12.88
2018-09-29T23:23:53.387Z,12.77
2018-09-29T23:26:22.345Z,12.84
2018-09-29T23:28:51.282Z,12.86
2018-09-29T23:31:20.238Z,12.85
2018-09-29T23:33:49.178Z,12.89
2018-09-29T23:36:18.136Z,12.86
2018-09-29T23:38:47.054Z,12.87
2018-09-29T23:41:16.067Z,12.87
2018-09-29T23:43:45.044Z,12.85
2018-09-29T23:46:14.010Z,12.93
2018-09-29T23:48:42.955Z,12.92
2018-09-29T23:51:11.890Z,12.91
2018-09-29T23:53:40.869Z,12.89
2018-09-29T23:56:09.816Z,12.91
2018-09-29T23:58:38.806Z,12.87
